createdAt,value
2023-05-02T04:39:58.858Z,2.30
2023-05-02T04:42:27.941Z,2.30
2023-05-02T04:45:01.174Z,3.20
2023-05-02T04:47:28.164Z,2.60
2023-05-02T04:49:55.192Z,3.20
2023-05-02T04:52:22.085Z,2.70
2023-05-02T04:54:49.084Z,2.60
2023-05-02T04:57:16.127Z,3.70
2023-05-02T04:59:47.110Z,2.90
2023-05-02T05:02:15.333Z,3.10
2023-05-02T05:04:42.538Z,4.00
2023-05-02T05:07:09.593Z,4.10
2023-05-02T05:09:36.633Z,5.50
2023-05-02T05:12:04.017Z,4.80
2023-05-02T05:14:34.098Z,5.60
2023-05-02T05:17:02.801Z,6.60
2023-05-02T05:19:30.268Z,11.60
2023-05-02T05:21:57.649Z,9.80
2023-05-02T05:24:24.704Z,7.70
2023-05-02T05:26:53.526Z,7.70
2023-05-02T05:29:20.687Z,6.50
2023-05-02T05:31:47.984Z,5.10
2023-05-02T05:34:18.032Z,4.60
2023-05-02T05:36:46.100Z,3.50
2023-05-02T05:39:33.278Z,3.00
2023-05-02T05:42:03.212Z,2.00
2023-05-02T05:44:43.169Z,2.20
2023-05-02T05:47:14.088Z,2.00
2023-05-02T05:49:41.496Z,1.50
2023-05-02T05:52:10.244Z,1.50
2023-05-02T05:54:37.151Z,1.40
2023-05-02T05:57:06.751Z,1.50
2023-05-02T05:59:36.255Z,1.40
2023-05-02T06:02:04.221Z,1.40
2023-05-02T06:04:31.930Z,1.20
2023-05-02T06:06:59.694Z,0.90
2023-05-02T06:09:26.659Z,1.40
2023-05-02T06:11:53.584Z,1.20
2023-05-02T06:14:20.752Z,1.40
2023-05-02T06:16:52.321Z,1.10
2023-05-02T06:19:20.388Z,1.40
2023-05-02T06:21:47.775Z,1.60
2023-05-02T06:24:15.228Z,1.60
2023-05-02T06:26:42.462Z,1.20
2023-05-02T06:29:09.630Z,1.20
2023-05-02T06:31:36.979Z,1.30
2023-05-02T06:34:04.217Z,1.10
2023-05-02T06:36:31.724Z,1.00
2023-05-02T06:38:58.652Z,0.80
2023-05-02T06:41:25.629Z,1.40
2023-05-02T06:43:52.576Z,1.00
2023-05-02T06:46:20.968Z,0.90
2023-05-02T06:48:48.300Z,1.40
2023-05-02T06:51:15.509Z,0.90
2023-05-02T06:53:42.590Z,0.90
2023-05-02T06:56:10.373Z,1.40
2023-05-02T06:58:37.231Z,1.00
2023-05-02T07:01:04.147Z,1.20
2023-05-02T07:03:31.510Z,1.10
2023-05-02T07:05:59.707Z,0.60
2023-05-02T07:08:27.084Z,1.40
2023-05-02T07:10:54.314Z,1.10
2023-05-02T07:13:21.286Z,1.40
2023-05-02T07:15:48.201Z,1.10
2023-05-02T07:18:15.428Z,1.20
2023-05-02T07:20:42.646Z,1.00
2023-05-02T07:23:09.791Z,0.90
2023-05-02T07:25:37.323Z,1.00
2023-05-02T07:28:06.004Z,1.10
2023-05-02T07:30:34.091Z,1.00
2023-05-02T07:33:02.964Z,1.70
2023-05-02T07:35:30.391Z,1.60
2023-05-02T07:37:57.537Z,1.60
2023-05-02T07:40:24.680Z,1.10
2023-05-02T07:42:51.724Z,1.00
2023-05-02T07:45:18.915Z,0.80
2023-05-02T07:47:46.769Z,1.20
2023-05-02T07:50:30.515Z,1.10
2023-05-02T07:53:07.578Z,1.20
2023-05-02T07:55:34.851Z,1.30
2023-05-02T07:58:01.817Z,0.90
2023-05-02T08:00:31.735Z,1.60
2023-05-02T08:02:58.921Z,1.30
2023-05-02T08:05:50.475Z,0.80
2023-05-02T08:08:29.723Z,1.00
2023-05-02T08:11:05.435Z,0.80
2023-05-02T08:14:37.894Z,1.20
2023-05-02T08:17:54.390Z,1.20
2023-05-02T08:20:46.436Z,1.10
2023-05-02T08:23:32.836Z,1.10
2023-05-02T08:26:00.486Z,1.40
2023-05-02T08:28:28.768Z,1.20
2023-05-02T08:30:57.738Z,0.80
2023-05-02T08:33:31.070Z,1.00
2023-05-02T08:36:14.425Z,1.00
2023-05-02T08:38:46.568Z,1.30
2023-05-02T08:41:22.018Z,1.10
2023-05-02T08:43:54.254Z,1.40
2023-05-02T08:46:24.242Z,1.20
2023-05-02T08:48:51.696Z,1.20
2023-05-02T08:53:47.158Z,1.00
2023-05-02T08:56:14.150Z,1.10
2023-05-02T08:58:41.678Z,1.10
2023-05-02T09:01:19.924Z,0.80
2023-05-02T09:03:51.167Z,1.00
2023-05-02T09:06:21.373Z,1.10
2023-05-02T09:08:50.264Z,1.00
2023-05-02T09:11:17.463Z,1.00
2023-05-02T09:13:44.943Z,1.30
2023-05-02T09:16:38.575Z,1.40
2023-05-02T09:19:05.710Z,1.00
2023-05-02T09:21:37.304Z,1.30
2023-05-02T09:24:21.430Z,1.20
2023-05-02T09:27:05.076Z,1.10
2023-05-02T09:29:36.208Z,1.30
2023-05-02T09:32:10.521Z,1.00
2023-05-02T09:34:39.555Z,1.20
2023-05-02T09:37:10.343Z,1.20
2023-05-02T09:39:38.579Z,1.00
2023-05-02T09:42:06.001Z,1.40
2023-05-02T09:44:37.679Z,1.10
2023-05-02T09:47:06.901Z,0.90
2023-05-02T09:49:47.170Z,0.90
2023-05-02T09:52:18.954Z,1.50
2023-05-02T09:54:51.010Z,1.60
2023-05-02T09:59:59.800Z,0.80
2023-05-02T10:02:29.392Z,3.60
2023-05-02T10:04:57.383Z,1.30
2023-05-02T10:07:25.319Z,1.20
2023-05-02T10:09:52.600Z,0.90
2023-05-02T10:12:19.627Z,0.80
2023-05-02T10:14:50.937Z,1.20
2023-05-02T10:17:24.045Z,1.00
2023-05-02T10:19:58.130Z,1.10
2023-05-02T10:22:25.134Z,0.90
2023-05-02T10:24:57.343Z,1.00
2023-05-02T10:27:29.738Z,0.90
2023-05-02T10:30:00.213Z,1.10
2023-05-02T10:32:30.548Z,1.70
2023-05-02T10:34:57.825Z,1.00
2023-05-02T10:37:26.814Z,1.10
2023-05-02T10:39:55.140Z,1.40
2023-05-02T10:42:23.394Z,1.20
2023-05-02T10:44:51.378Z,0.70
2023-05-02T10:47:22.592Z,0.90
2023-05-02T10:49:51.341Z,0.90
2023-05-02T10:52:39.784Z,1.40
2023-05-02T10:55:17.221Z,1.00
2023-05-02T10:58:09.240Z,1.00
2023-05-02T11:00:36.301Z,1.00
2023-05-02T11:03:03.802Z,1.10
2023-05-02T11:05:30.868Z,1.40
2023-05-02T11:08:16.829Z,0.80
2023-05-02T11:10:46.174Z,1.00
2023-05-02T11:13:13.162Z,0.90
2023-05-02T11:15:40.059Z,0.90
2023-05-02T11:18:14.450Z,0.90
2023-05-02T11:20:42.410Z,1.20
2023-05-02T11:23:15.603Z,0.90
2023-05-02T11:25:43.671Z,1.00
2023-05-02T11:28:39.803Z,0.80
2023-05-02T11:31:10.978Z,1.00
2023-05-02T11:33:38.053Z,0.90
2023-05-02T11:36:05.097Z,0.80
2023-05-02T11:38:38.440Z,0.80
2023-05-02T11:41:05.489Z,0.90
2023-05-02T11:43:32.826Z,0.80
2023-05-02T11:46:01.747Z,1.10
2023-05-02T11:48:29.323Z,1.10
2023-05-02T11:51:05.410Z,0.90
2023-05-02T11:53:33.433Z,1.00
2023-05-02T11:56:01.847Z,0.60
2023-05-02T11:58:35.155Z,0.70
2023-05-02T12:01:15.475Z,0.80
2023-05-02T12:03:42.758Z,0.60
2023-05-02T12:06:18.933Z,1.30
2023-05-02T12:08:46.808Z,0.90
2023-05-02T12:11:15.647Z,0.90
2023-05-02T12:13:50.222Z,1.10
2023-05-02T12:16:18.066Z,0.80
2023-05-02T12:18:45.229Z,0.60
